createdAt,value
2022-08-01T00:00:17.286Z,15.18
2022-08-01T00:02:46.732Z,17.38
2022-08-01T00:05:16.197Z,14.65
2022-08-01T00:07:45.819Z,15.02
2022-08-01T00:10:19.335Z,16.10
2022-08-01T00:12:49.388Z,14.52
2022-08-01T00:15:20.336Z,15.68
2022-08-01T00:17:49.764Z,14.43
2022-08-01T00:20:19.154Z,15.65
2022-08-01T00:22:50.968Z,16.55
2022-08-01T00:25:20.431Z,14.50
2022-08-01T00:28:09.614Z,14.77
2022-08-01T00:30:39.540Z,16.05
2022-08-01T00:33:08.931Z,16.15
2022-08-01T00:35:38.339Z,16.33
2022-08-01T00:38:07.737Z,14.02
2022-08-01T00:40:37.153Z,15.52
2022-08-01T00:43:07.260Z,17.88
2022-08-01T00:45:36.699Z,15.65
2022-08-01T00:48:06.175Z,16.27
2022-08-01T00:50:36.113Z,16.50
2022-08-01T00:53:06.079Z,14.25
2022-08-01T00:55:35.955Z,17.52
2022-08-01T00:58:06.666Z,16.58
2022-08-01T01:00:53.097Z,17.42
2022-08-01T01:06:28.126Z,16.20
2022-08-01T01:09:15.715Z,18.20
2022-08-01T01:12:04.074Z,16.63
2022-08-01T01:14:39.856Z,18.00
2022-08-01T01:17:12.383Z,15.40
2022-08-01T01:19:49.022Z,19.30
2022-08-01T01:22:28.685Z,15.57
2022-08-01T01:25:16.355Z,15.55
2022-08-01T01:28:01.563Z,15.27
2022-08-01T01:30:34.048Z,20.35
2022-08-01T01:33:07.167Z,18.67
2022-08-01T01:35:40.195Z,17.00
2022-08-01T01:38:18.711Z,17.02
2022-08-01T01:40:50.502Z,18.60
2022-08-01T01:43:20.986Z,20.52
2022-08-01T01:45:59.795Z,14.60
2022-08-01T01:48:30.705Z,16.70
2022-08-01T01:51:00.758Z,13.10
2022-08-01T01:53:31.961Z,14.82
2022-08-01T01:56:04.202Z,15.00
2022-08-01T01:58:36.695Z,13.27
2022-08-01T02:01:12.408Z,16.25
2022-08-01T02:03:47.371Z,14.43
2022-08-01T02:06:18.443Z,12.63
2022-08-01T02:08:50.691Z,11.73
2022-08-01T02:14:05.247Z,11.55
2022-08-01T02:16:39.926Z,13.13
2022-08-01T02:19:09.761Z,12.35
2022-08-01T02:21:54.696Z,12.82
2022-08-01T02:24:44.495Z,15.02
2022-08-01T02:27:17.352Z,13.90
2022-08-01T02:29:54.099Z,16.35
2022-08-01T02:32:29.314Z,19.73
2022-08-01T02:35:00.900Z,12.13
2022-08-01T02:37:32.725Z,14.05
2022-08-01T02:40:03.758Z,15.63
2022-08-01T02:42:36.131Z,13.63
2022-08-01T02:45:09.511Z,13.93
2022-08-01T02:47:41.933Z,12.95
2022-08-01T02:50:13.474Z,12.30
2022-08-01T02:52:45.556Z,18.05
2022-08-01T02:57:52.048Z,14.68
2022-08-01T03:00:24.769Z,15.57
2022-08-01T03:02:56.289Z,12.80
2022-08-01T03:05:27.908Z,15.83
2022-08-01T03:08:02.823Z,13.98
2022-08-01T03:10:35.113Z,15.25
2022-08-01T03:13:05.294Z,14.40
2022-08-01T03:15:39.023Z,15.23
2022-08-01T03:18:11.321Z,13.32
2022-08-01T03:20:42.551Z,13.95
2022-08-01T03:23:14.992Z,13.43
2022-08-01T03:25:46.881Z,12.18
2022-08-01T03:28:24.388Z,12.75
2022-08-01T03:31:00.754Z,13.52
2022-08-01T03:33:30.339Z,18.23
2022-08-01T03:36:02.626Z,12.38
2022-08-01T03:38:38.180Z,18.13
2022-08-01T03:41:15.296Z,16.08
2022-08-01T03:43:50.342Z,16.50
2022-08-01T03:46:26.045Z,15.07
2022-08-01T03:48:58.864Z,19.02
2022-08-01T03:51:28.928Z,17.65
2022-08-01T03:54:04.800Z,17.73
2022-08-01T03:56:35.351Z,17.10
2022-08-01T04:01:37.755Z,21.52
2022-08-01T04:04:10.764Z,16.65
2022-08-01T04:06:47.183Z,16.40
2022-08-01T04:09:19.783Z,13.98
2022-08-01T04:11:49.217Z,16.00
2022-08-01T04:14:19.036Z,14.82
2022-08-01T04:16:48.384Z,13.20
2022-08-01T04:19:18.103Z,13.88
2022-08-01T04:21:47.485Z,16.63
2022-08-01T04:24:20.356Z,14.18
2022-08-01T04:26:51.339Z,14.80
2022-08-01T04:29:23.004Z,16.88
2022-08-01T04:31:53.967Z,14.77
2022-08-01T04:34:26.441Z,15.68
2022-08-01T04:36:58.260Z,15.15
2022-08-01T04:39:31.881Z,14.82
2022-08-01T04:42:04.910Z,16.58
2022-08-01T04:44:36.249Z,19.23
2022-08-01T04:47:08.775Z,16.75
2022-08-01T04:49:49.057Z,16.20
2022-08-01T04:52:23.034Z,15.45
2022-08-01T04:54:54.100Z,17.35
2022-08-01T04:57:23.451Z,17.17
2022-08-01T04:59:57.816Z,19.88
2022-08-01T05:02:29.254Z,18.80
2022-08-01T05:04:58.882Z,18.67
2022-08-01T05:07:28.270Z,19.63
2022-08-01T05:09:57.731Z,26.75
2022-08-01T05:12:27.088Z,16.75
2022-08-01T05:14:56.791Z,18.30
2022-08-01T05:17:26.358Z,18.67
2022-08-01T05:19:55.748Z,19.13
2022-08-01T05:22:26.573Z,24.27
2022-08-01T05:24:56.410Z,20.92
2022-08-01T05:27:26.572Z,19.02
2022-08-01T05:29:58.065Z,18.05
2022-08-01T05:32:28.263Z,20.08
2022-08-01T05:35:01.548Z,17.83
2022-08-01T05:37:30.891Z,19.17
2022-08-01T05:40:00.218Z,16.52
2022-08-01T05:42:29.616Z,18.63
2022-08-01T05:44:58.926Z,17.92
2022-08-01T05:47:28.244Z,19.17
2022-08-01T05:49:57.557Z,21.20
2022-08-01T05:52:26.922Z,18.40
2022-08-01T05:54:56.214Z,15.57
2022-08-01T05:57:25.544Z,19.65
2022-08-01T05:59:55.280Z,18.70
2022-08-01T06:02:24.820Z,18.55
2022-08-01T06:04:54.259Z,16.73
2022-08-01T06:07:23.655Z,16.27
2022-08-01T06:09:52.978Z,18.10
2022-08-01T06:12:22.288Z,14.32
2022-08-01T06:14:52.642Z,12.43
2022-08-01T06:17:21.968Z,15.50
2022-08-01T06:19:51.341Z,13.23
2022-08-01T06:22:20.752Z,12.73
2022-08-01T06:24:51.223Z,12.73
2022-08-01T06:27:21.679Z,14.32
2022-08-01T06:29:54.480Z,13.87
2022-08-01T06:34:58.409Z,12.63
2022-08-01T06:37:27.899Z,13.93
2022-08-01T06:39:57.199Z,14.50
2022-08-01T06:42:26.545Z,12.13
2022-08-01T06:44:55.947Z,11.38
2022-08-01T06:47:25.240Z,9.57
2022-08-01T06:52:26.755Z,8.98
2022-08-01T06:54:57.047Z,8.98
2022-08-01T06:57:26.451Z,7.90
2022-08-01T06:59:56.649Z,10.65
2022-08-01T07:02:26.908Z,7.80
2022-08-01T07:04:56.212Z,7.10
2022-08-01T07:07:25.617Z,7.10
2022-08-01T07:09:57.576Z,7.07
2022-08-01T07:12:26.914Z,7.68
2022-08-01T07:14:56.204Z,9.52
2022-08-01T07:17:25.628Z,6.68
2022-08-01T07:19:55.588Z,6.50
2022-08-01T07:24:56.461Z,6.05
2022-08-01T07:27:26.296Z,3.70
2022-08-01T07:29:55.845Z,5.10
2022-08-01T07:32:25.380Z,5.03
2022-08-01T07:34:54.766Z,5.55
2022-08-01T07:37:47.686Z,6.57
2022-08-01T07:40:17.675Z,5.85
2022-08-01T07:42:47.243Z,5.55
2022-08-01T07:45:17.323Z,5.85
2022-08-01T07:47:50.555Z,3.78
2022-08-01T07:50:20.199Z,5.00
2022-08-01T07:52:49.527Z,3.90
2022-08-01T07:55:18.830Z,2.88
2022-08-01T07:57:48.119Z,4.03
2022-08-01T08:00:17.780Z,3.42
2022-08-01T08:02:47.418Z,4.18
2022-08-01T08:05:16.863Z,3.50
2022-08-01T08:08:09.099Z,4.07
2022-08-01T08:10:38.677Z,3.63
2022-08-01T08:13:10.781Z,5.88
2022-08-01T08:15:42.526Z,4.93
2022-08-01T08:18:17.564Z,7.05
2022-08-01T08:20:47.235Z,5.50
2022-08-01T08:23:41.949Z,6.93
2022-08-01T08:26:14.347Z,5.80
2022-08-01T08:28:43.707Z,5.97
2022-08-01T08:31:25.572Z,6.47
2022-08-01T08:34:02.804Z,5.20
2022-08-01T08:36:32.445Z,4.35
2022-08-01T08:39:03.396Z,4.50
2022-08-01T08:41:37.706Z,7.25
2022-08-01T08:44:12.823Z,7.10
2022-08-01T08:46:48.016Z,5.68
2022-08-01T08:49:26.860Z,6.00
2022-08-01T08:51:57.493Z,3.47
2022-08-01T08:54:31.031Z,4.30
2022-08-01T08:57:02.773Z,5.22
2022-08-01T08:59:32.780Z,2.75
2022-08-01T09:02:03.293Z,1.85
2022-08-01T09:04:32.813Z,1.30
2022-08-01T09:07:02.145Z,3.97
2022-08-01T09:09:31.535Z,1.30
2022-08-01T09:12:01.790Z,2.10
2022-08-01T09:14:32.480Z,3.03
2022-08-01T09:17:11.965Z,1.60
2022-08-01T09:19:44.359Z,2.35
2022-08-01T09:22:19.184Z,1.40
2022-08-01T09:25:13.939Z,1.10
2022-08-01T09:27:46.200Z,2.03
2022-08-01T09:30:23.737Z,1.00
2022-08-01T09:32:59.393Z,1.08
2022-08-01T09:35:36.269Z,2.58
2022-08-01T09:38:20.611Z,2.17
2022-08-01T09:41:01.747Z,0.85
2022-08-01T09:43:33.324Z,1.87
2022-08-01T09:46:08.383Z,0.90
2022-08-01T09:48:43.144Z,0.93
2022-08-01T09:51:59.932Z,1.17
2022-08-01T09:54:37.456Z,2.60
2022-08-01T09:57:17.966Z,0.80
2022-08-01T09:59:58.685Z,2.90
2022-08-01T10:02:44.189Z,1.25
2022-08-01T10:05:18.903Z,1.10
2022-08-01T10:08:07.993Z,0.77
2022-08-01T10:10:37.718Z,0.70
2022-08-01T10:13:09.776Z,0.60
2022-08-01T10:15:39.448Z,1.33
2022-08-01T10:18:16.605Z,1.60
2022-08-01T10:20:57.978Z,2.83
2022-08-01T10:26:11.797Z,0.93
2022-08-01T10:28:42.354Z,1.48
2022-08-01T10:31:14.666Z,0.70
2022-08-01T10:33:50.487Z,1.27
2022-08-01T10:36:25.355Z,1.33
2022-08-01T10:38:57.794Z,2.28
2022-08-01T10:41:28.330Z,1.23
2022-08-01T10:43:58.720Z,0.50
2022-08-01T10:46:28.879Z,0.70
2022-08-01T10:49:09.310Z,2.25
2022-08-01T10:51:52.424Z,0.82
2022-08-01T10:54:28.781Z,2.78
2022-08-01T10:57:04.102Z,0.77
2022-08-01T10:59:58.916Z,4.03
2022-08-01T11:02:33.047Z,2.45
2022-08-01T11:05:10.844Z,1.88
2022-08-01T11:07:49.800Z,2.08
2022-08-01T11:10:33.990Z,0.85
2022-08-01T11:13:08.495Z,1.38
2022-08-01T11:15:49.940Z,1.95
2022-08-01T11:18:33.863Z,2.17
2022-08-01T11:21:58.808Z,1.98
2022-08-01T11:23:57.771Z,2.17
2022-08-01T11:26:29.884Z,2.65
2022-08-01T11:31:53.028Z,1.55
2022-08-01T11:34:22.727Z,1.88
2022-08-01T11:37:00.066Z,1.17
2022-08-01T11:39:29.763Z,1.48
2022-08-01T11:42:19.257Z,1.48
2022-08-01T11:44:54.275Z,0.75
2022-08-01T11:47:47.080Z,1.15
2022-08-01T11:50:36.716Z,1.30
2022-08-01T11:53:08.674Z,2.15
2022-08-01T11:55:40.976Z,1.30
2022-08-01T11:58:22.539Z,2.63
2022-08-01T12:01:00.946Z,1.17
2022-08-01T12:03:34.301Z,1.45
2022-08-01T12:06:04.347Z,2.28
2022-08-01T12:08:37.958Z,2.35
2022-08-01T12:11:08.233Z,0.60
2022-08-01T12:13:49.063Z,2.40
2022-08-01T12:16:18.514Z,0.73
2022-08-01T12:18:53.962Z,1.45
2022-08-01T12:21:24.042Z,1.88
2022-08-01T12:24:06.894Z,1.83
2022-08-01T12:26:45.499Z,3.92
2022-08-01T12:29:34.849Z,1.98
2022-08-01T12:32:04.297Z,3.17
2022-08-01T12:34:35.219Z,1.20
2022-08-01T12:37:06.155Z,1.73
2022-08-01T12:39:40.072Z,1.33
2022-08-01T12:42:17.760Z,2.28
2022-08-01T12:44:50.235Z,1.85
2022-08-01T12:47:20.503Z,3.63
2022-08-01T12:49:50.916Z,3.20
2022-08-01T12:52:26.796Z,2.40
2022-08-01T12:55:12.197Z,2.47
2022-08-01T12:57:45.623Z,1.63
2022-08-01T13:00:19.131Z,1.77
2022-08-01T13:02:50.850Z,1.40
2022-08-01T13:05:20.996Z,2.97
2022-08-01T13:07:54.324Z,1.90
2022-08-01T13:10:32.263Z,3.05
2022-08-01T13:13:02.353Z,2.97
2022-08-01T13:15:35.688Z,3.72
2022-08-01T13:18:31.851Z,3.25
2022-08-01T13:21:20.747Z,1.50
2022-08-01T13:24:11.879Z,3.85
2022-08-01T13:26:49.633Z,2.88
2022-08-01T13:29:24.659Z,2.63
2022-08-01T13:31:54.189Z,3.13
2022-08-01T13:34:36.759Z,6.03
2022-08-01T13:37:06.154Z,2.55
2022-08-01T13:39:48.532Z,5.50
2022-08-01T13:42:19.951Z,2.70
2022-08-01T13:47:30.079Z,4.15
2022-08-01T13:50:04.204Z,4.45
2022-08-01T13:55:04.773Z,3.85
2022-08-01T13:57:42.986Z,3.83
2022-08-01T14:00:13.616Z,1.40
2022-08-01T14:02:43.399Z,4.03
2022-08-01T14:05:12.928Z,3.15
2022-08-01T14:07:42.319Z,4.78
2022-08-01T14:10:18.804Z,6.00
2022-08-01T14:12:50.590Z,3.63
2022-08-01T14:15:38.319Z,6.43
2022-08-01T14:18:10.783Z,2.38
2022-08-01T14:20:41.893Z,3.17
2022-08-01T14:23:12.224Z,6.53
2022-08-01T14:26:03.728Z,2.63
2022-08-01T14:28:32.365Z,7.25
2022-08-01T14:31:01.872Z,4.57
2022-08-01T14:33:31.947Z,5.85
2022-08-01T14:36:28.670Z,5.93
2022-08-01T14:38:53.354Z,7.82
2022-08-01T14:41:22.743Z,5.10
2022-08-01T14:43:52.020Z,3.88
2022-08-01T14:46:21.447Z,6.55
2022-08-01T14:48:50.858Z,3.47
2022-08-01T14:51:20.322Z,3.47
2022-08-01T14:53:52.990Z,2.90
2022-08-01T14:56:22.882Z,4.50
2022-08-01T14:58:52.253Z,1.60
2022-08-01T15:01:21.655Z,2.42
2022-08-01T15:03:51.694Z,2.42
2022-08-01T15:06:21.177Z,1.45
2022-08-01T15:08:50.571Z,5.53
2022-08-01T15:11:19.887Z,8.55
2022-08-01T15:14:09.169Z,4.85
2022-08-01T15:16:38.491Z,4.38
2022-08-01T15:19:08.162Z,5.20
2022-08-01T15:21:42.057Z,4.18
2022-08-01T15:24:12.940Z,5.60
2022-08-01T15:26:42.284Z,4.50
2022-08-01T15:29:13.110Z,3.67
2022-08-01T15:31:42.482Z,6.50
2022-08-01T15:34:11.930Z,5.03
2022-08-01T15:36:43.439Z,2.85
2022-08-01T15:39:15.999Z,13.02
2022-08-01T15:41:45.460Z,3.63
2022-08-01T15:44:14.816Z,4.78
2022-08-01T15:46:44.399Z,5.95
2022-08-01T15:49:13.728Z,3.08
2022-08-01T15:51:43.063Z,7.05
2022-08-01T15:54:14.723Z,2.22
2022-08-01T15:56:44.592Z,12.25
2022-08-01T15:59:16.946Z,6.32
2022-08-01T16:01:46.505Z,6.07
2022-08-01T16:04:21.132Z,6.53
2022-08-01T16:06:56.592Z,4.22
2022-08-01T16:09:26.950Z,4.72
2022-08-01T16:11:56.388Z,2.17
2022-08-01T16:14:25.824Z,4.15
2022-08-01T16:16:55.112Z,4.47
2022-08-01T16:19:24.632Z,6.18
2022-08-01T16:21:54.357Z,7.18
2022-08-01T16:24:23.783Z,3.58
2022-08-01T16:26:53.114Z,6.45
2022-08-01T16:29:22.515Z,4.70
2022-08-01T16:32:08.090Z,2.67
2022-08-01T16:34:46.843Z,4.30
2022-08-01T16:37:17.552Z,5.07
2022-08-01T16:39:47.542Z,4.03
2022-08-01T16:42:17.118Z,4.78
2022-08-01T16:44:46.729Z,6.40
2022-08-01T16:47:19.210Z,1.90
2022-08-01T16:49:48.964Z,2.50
2022-08-01T16:52:18.983Z,6.25
2022-08-01T16:54:48.599Z,5.68
2022-08-01T16:57:17.903Z,3.75
2022-08-01T16:59:47.384Z,6.43
2022-08-01T17:02:16.899Z,4.03
2022-08-01T17:04:46.259Z,4.20
2022-08-01T17:07:15.587Z,3.67
2022-08-01T17:09:44.977Z,3.53
2022-08-01T17:12:18.778Z,5.00
2022-08-01T17:14:51.593Z,4.07
2022-08-01T17:17:21.127Z,4.93
2022-08-01T17:19:51.892Z,3.13
2022-08-01T17:22:21.496Z,3.15
2022-08-01T17:24:51.199Z,6.72
2022-08-01T17:27:21.195Z,2.13
2022-08-01T17:29:50.653Z,2.25
2022-08-01T17:32:20.496Z,8.80
2022-08-01T17:34:50.152Z,2.90
2022-08-01T17:37:19.508Z,2.95
2022-08-01T17:39:48.976Z,5.82
2022-08-01T17:42:18.292Z,6.05
2022-08-01T17:44:49.045Z,3.75
2022-08-01T17:47:48.041Z,2.95
2022-08-01T17:50:14.421Z,5.20
2022-08-01T17:52:43.947Z,3.10
2022-08-01T17:55:53.798Z,1.35
2022-08-01T18:06:58.507Z,3.83
2022-08-01T18:10:11.802Z,2.58
2022-08-01T18:50:41.386Z,1.80
2022-08-01T20:08:55.573Z,2.30
2022-08-01T20:11:25.216Z,2.22
2022-08-01T20:13:54.838Z,7.13
2022-08-01T20:16:24.393Z,1.75
2022-08-01T20:18:54.442Z,1.67
2022-08-01T20:21:25.695Z,5.38
2022-08-01T20:24:03.955Z,1.65
2022-08-01T20:26:33.811Z,2.25
2022-08-01T20:29:03.312Z,1.98
2022-08-01T20:31:34.657Z,2.70
2022-08-01T20:34:19.846Z,1.65
2022-08-01T20:36:56.721Z,3.33
2022-08-01T20:39:28.646Z,5.22
2022-08-01T20:41:59.559Z,5.18
2022-08-01T20:44:32.537Z,4.35
2022-08-01T20:47:05.031Z,2.78
2022-08-01T20:52:11.571Z,3.78
2022-08-01T20:54:45.698Z,2.95
2022-08-01T20:57:29.727Z,4.30
2022-08-01T21:00:08.083Z,3.22
2022-08-01T21:02:52.457Z,3.05
2022-08-01T21:05:32.790Z,2.50
2022-08-01T21:08:25.001Z,4.28
2022-08-01T21:11:02.087Z,3.00
2022-08-01T21:13:43.320Z,3.30
2022-08-01T21:16:23.826Z,2.13
2022-08-01T21:22:00.112Z,5.28
2022-08-01T21:24:36.981Z,4.82
2022-08-01T21:27:07.157Z,5.55
2022-08-01T21:29:38.178Z,7.88
2022-08-01T21:32:16.182Z,5.25
2022-08-01T21:34:49.514Z,5.43
2022-08-01T21:37:20.090Z,4.78
2022-08-01T21:39:50.104Z,3.25
2022-08-01T21:42:19.541Z,2.58
2022-08-01T21:44:49.945Z,6.97
2022-08-01T21:47:19.648Z,3.22
2022-08-01T21:49:49.189Z,2.80
2022-08-01T21:52:22.791Z,4.18
2022-08-01T21:55:01.261Z,2.63
2022-08-01T21:57:58.292Z,8.60
2022-08-01T22:00:28.003Z,4.93
2022-08-01T22:03:25.363Z,3.40
2022-08-01T22:05:57.047Z,3.25
2022-08-01T22:08:56.366Z,3.22
2022-08-01T22:11:33.685Z,4.55
2022-08-01T22:14:06.298Z,1.80
2022-08-01T22:16:40.845Z,7.85
2022-08-01T22:19:44.235Z,3.88
2022-08-01T22:22:04.614Z,1.38
2022-08-01T22:24:53.592Z,4.13
2022-08-01T22:28:07.773Z,5.18
2022-08-01T22:30:18.653Z,3.42
2022-08-01T22:33:15.794Z,2.90
2022-08-01T22:35:43.163Z,3.47
2022-08-01T22:38:13.050Z,2.60
2022-08-01T22:40:50.786Z,3.38
2022-08-01T22:43:44.599Z,2.92
2022-08-01T22:46:13.875Z,4.30
2022-08-01T22:48:55.499Z,4.15
2022-08-01T22:51:27.887Z,1.90
2022-08-01T22:56:44.727Z,3.63
2022-08-01T22:59:18.424Z,3.22
2022-08-01T23:01:51.750Z,4.43
2022-08-01T23:04:37.390Z,3.40
2022-08-01T23:07:09.033Z,3.47
2022-08-01T23:09:48.070Z,2.65
2022-08-01T23:12:26.058Z,4.38
2022-08-01T23:15:00.118Z,3.70
2022-08-01T23:17:32.593Z,2.88
2022-08-01T23:20:04.409Z,5.07
2022-08-01T23:22:35.953Z,6.78
2022-08-01T23:25:09.167Z,5.47
2022-08-01T23:27:52.003Z,4.30
2022-08-01T23:30:34.545Z,4.53
2022-08-01T23:33:04.871Z,3.80
2022-08-01T23:35:38.774Z,4.55
2022-08-01T23:38:10.952Z,3.47
2022-08-01T23:40:40.864Z,2.55
2022-08-01T23:43:16.950Z,3.45
2022-08-01T23:46:04.449Z,5.38
2022-08-01T23:48:36.365Z,4.10
2022-08-01T23:51:07.660Z,2.20
2022-08-01T23:53:39.059Z,4.00
2022-08-01T23:56:08.651Z,2.47
2022-08-01T23:58:38.015Z,1.48
